Time;durP1;ratioP1;P1;durP2;ratioP2;P2;SDS_P1;SDS_P2;PMS_P1;PMS_P2;Temp;Humidity;BMP_temperature;BMP_pressure;BME280_temperature;BME280_humidity;BME280_pressure;Samples;Min_cycle;Max_cycle;Signal;HPM_P1;HPM_P2
2023/06/06 00:02:05;;;;;;;4.20;2.70;;;17.10;53.80;;;;;;4959084;29;20433;-71
2023/06/06 00:04:30;;;;;;;7.40;2.90;;;17.10;53.90;;;;;;4947634;29;20433;-72
2023/06/06 00:06:56;;;;;;;6.50;3.43;;;17.10;53.90;;;;;;4964290;28;20709;-72
2023/06/06 00:09:22;;;;;;;3.30;2.70;;;17.00;54.00;;;;;;4966559;28;20300;-72
2023/06/06 00:11:48;;;;;;;4.00;2.63;;;17.00;54.10;;;;;;4930229;29;20466;-71
2023/06/06 00:14:18;;;;;;;7.70;3.10;;;17.00;54.20;;;;;;4948973;28;20403;-72
2023/06/06 00:16:48;;;;;;;3.63;2.97;;;16.90;54.20;;;;;;4946371;29;20193;-74
2023/06/06 00:19:15;;;;;;;5.03;2.90;;;16.90;54.40;;;;;;4931491;29;20938;-72
2023/06/06 00:21:41;;;;;;;4.93;3.13;;;16.90;54.50;;;;;;4964850;29;20418;-72
2023/06/06 00:24:08;;;;;;;3.10;2.70;;;16.80;54.60;;;;;;4947969;29;20543;-72
2023/06/06 00:26:33;;;;;;;4.70;3.30;;;16.80;54.70;;;;;;4932556;29;20420;-72
2023/06/06 00:28:59;;;;;;;3.90;3.03;;;16.70;55.00;;;;;;4968865;29;20492;-73
2023/06/06 00:31:25;;;;;;;2.70;2.40;;;16.60;55.10;;;;;;4954126;29;20605;-72
2023/06/06 00:33:50;;;;;;;4.20;3.00;;;16.50;55.20;;;;;;4951423;29;20193;-72
2023/06/06 00:36:16;;;;;;;2.90;2.47;;;16.50;55.50;;;;;;4964781;29;20197;-73
2023/06/06 00:38:41;;;;;;;5.70;3.80;;;16.50;55.60;;;;;;4964137;29;20196;-72
2023/06/06 00:41:09;;;;;;;3.80;3.07;;;16.50;55.90;;;;;;4959560;29;20198;-72
2023/06/06 00:43:35;;;;;;;3.97;3.07;;;16.50;55.90;;;;;;4946254;28;20414;-72
2023/06/06 00:46:01;;;;;;;4.33;2.60;;;16.40;56.10;;;;;;4978240;28;20455;-72
2023/06/06 00:48:27;;;;;;;3.47;2.67;;;16.40;56.30;;;;;;4967628;28;20276;-72
2023/06/06 00:50:54;;;;;;;3.33;2.40;;;16.30;56.50;;;;;;4966566;29;20471;-72
2023/06/06 00:53:20;;;;;;;4.07;2.50;;;16.30;56.80;;;;;;4950838;29;20418;-73
2023/06/06 00:55:46;;;;;;;3.40;2.00;;;16.20;57.10;;;;;;4953822;28;20180;-72
2023/06/06 00:58:12;;;;;;;2.93;2.40;;;16.10;57.30;;;;;;4983790;28;20408;-72
2023/06/06 01:00:39;;;;;;;4.03;2.57;;;16.10;57.70;;;;;;4982773;28;20420;-73
2023/06/06 01:03:09;;;;;;;2.50;2.10;;;16.10;58.10;;;;;;4948063;28;20443;-72
2023/06/06 01:05:37;;;;;;;4.07;2.50;;;16.10;58.30;;;;;;4946758;29;20776;-73
2023/06/06 01:08:05;;;;;;;5.00;3.43;;;16.00;58.60;;;;;;4930581;29;20456;-72
2023/06/06 01:10:34;;;;;;;3.80;2.87;;;16.00;59.30;;;;;;4961604;29;20484;-71
2023/06/06 01:13:13;;;;;;;4.30;2.90;;;16.00;59.70;;;;;;4947819;29;20441;-72
2023/06/06 01:15:50;;;;;;;3.73;2.90;;;15.90;60.10;;;;;;4959414;29;20405;-71
2023/06/06 01:18:19;;;;;;;3.73;2.90;;;15.90;61.20;;;;;;4927113;29;20410;-70
2023/06/06 01:20:46;;;;;;;4.57;2.97;;;15.90;62.40;;;;;;4943527;29;20437;-72
2023/06/06 01:23:12;;;;;;;4.60;2.60;;;15.90;63.70;;;;;;4964431;29;20833;-72
2023/06/06 01:25:40;;;;;;;3.40;2.63;;;15.80;65.30;;;;;;4930361;29;20508;-72
2023/06/06 01:28:12;;;;;;;4.80;3.30;;;15.70;67.10;;;;;;4929137;29;20460;-73
2023/06/06 01:30:41;;;;;;;7.03;4.40;;;15.70;69.30;;;;;;4926888;29;20466;-72
2023/06/06 01:33:39;;;;;;;5.37;3.40;;;15.60;71.10;;;;;;4941921;29;20932;-71
2023/06/06 01:36:37;;;;;;;4.53;3.30;;;15.60;74.20;;;;;;4945683;29;20507;-73
2023/06/06 01:39:08;;;;;;;6.37;3.47;;;15.50;77.90;;;;;;4940931;29;20506;-72
2023/06/06 01:41:37;;;;;;;4.07;2.80;;;15.50;80.40;;;;;;4941789;29;20429;-72
2023/06/06 01:44:05;;;;;;;4.37;3.50;;;15.50;81.60;;;;;;4926157;29;20429;-74
2023/06/06 01:46:33;;;;;;;3.43;2.70;;;15.40;84.60;;;;;;4907596;29;20454;-71
2023/06/06 01:48:58;;;;;;;6.63;3.80;;;15.40;86.60;;;;;;4917777;29;20493;-72
2023/06/06 01:51:28;;;;;;;5.40;3.30;;;15.30;88.60;;;;;;4919104;29;20457;-72
2023/06/06 01:53:57;;;;;;;4.53;2.90;;;15.20;90.20;;;;;;4942212;29;20185;-72
2023/06/06 01:56:23;;;;;;;4.93;3.30;;;15.20;91.20;;;;;;4926040;29;20453;-73
2023/06/06 01:58:48;;;;;;;5.50;4.07;;;15.20;92.50;;;;;;4910674;29;20466;-71
2023/06/06 02:01:14;;;;;;;4.33;3.57;;;15.10;93.30;;;;;;4923676;29;20770;-72
2023/06/06 02:03:41;;;;;;;4.20;3.40;;;15.10;94.10;;;;;;4923437;29;20194;-71
2023/06/06 02:06:07;;;;;;;4.50;3.30;;;15.00;95.10;;;;;;4940465;29;20475;-71
2023/06/06 02:08:32;;;;;;;5.30;4.27;;;15.00;96.10;;;;;;4924693;29;20429;-71
2023/06/06 02:10:59;;;;;;;5.00;3.73;;;15.00;97.50;;;;;;4938448;29;20262;-72
2023/06/06 02:13:26;;;;;;;4.50;3.77;;;15.00;97.30;;;;;;4956271;29;20397;-73
2023/06/06 02:15:52;;;;;;;5.00;3.70;;;14.90;97.70;;;;;;4958700;28;20539;-71
2023/06/06 02:18:17;;;;;;;6.53;3.70;;;14.90;98.70;;;;;;4959087;28;20404;-72
2023/06/06 02:20:43;;;;;;;6.00;4.80;;;14.90;99.20;;;;;;4936770;29;20463;-72
2023/06/06 02:23:09;;;;;;;6.07;4.07;;;14.90;99.90;;;;;;4965284;29;20284;-72
2023/06/06 02:25:37;;;;;;;6.13;3.90;;;14.90;99.90;;;;;;4927250;29;20193;-71
2023/06/06 02:28:04;;;;;;;4.00;3.40;;;14.90;99.90;;;;;;4945464;29;20424;-72
2023/06/06 02:30:30;;;;;;;5.10;3.57;;;14.90;99.90;;;;;;4929097;29;20500;-72
2023/06/06 02:32:56;;;;;;;5.07;3.23;;;14.90;99.90;;;;;;4929922;29;20421;-71
2023/06/06 02:35:22;;;;;;;6.23;4.30;;;14.90;99.90;;;;;;4946721;29;20249;-72
2023/06/06 02:37:48;;;;;;;7.23;5.47;;;14.80;99.90;;;;;;4961197;29;20413;-72
2023/06/06 02:40:15;;;;;;;6.23;5.13;;;14.80;99.90;;;;;;4943837;29;20461;-72
2023/06/06 02:42:41;;;;;;;5.17;4.10;;;14.80;99.90;;;;;;4944606;29;20409;-73
2023/06/06 02:45:09;;;;;;;7.10;4.10;;;14.80;99.90;;;;;;4941514;29;20461;-72
2023/06/06 02:47:36;;;;;;;6.00;4.80;;;14.80;99.90;;;;;;4948143;29;20430;-73
2023/06/06 02:50:03;;;;;;;6.57;4.40;;;14.80;99.90;;;;;;4949531;29;20493;-72
2023/06/06 02:52:31;;;;;;;6.00;3.90;;;14.70;99.90;;;;;;4927376;29;20428;-71
2023/06/06 02:54:57;;;;;;;7.00;4.60;;;14.70;99.90;;;;;;4950946;28;20876;-71
2023/06/06 02:57:23;;;;;;;9.33;5.07;;;14.70;99.90;;;;;;4929800;29;20433;-72
2023/06/06 02:59:49;;;;;;;5.00;4.37;;;14.60;99.90;;;;;;4908170;29;20437;-71
2023/06/06 03:02:15;;;;;;;7.20;5.43;;;14.60;99.90;;;;;;4941605;28;20212;-70
2023/06/06 03:04:43;;;;;;;7.40;4.63;;;14.60;99.90;;;;;;4942804;29;20420;-72
2023/06/06 03:07:12;;;;;;;5.80;3.87;;;14.50;99.90;;;;;;4943682;29;20568;-71
2023/06/06 03:09:39;;;;;;;6.60;4.30;;;14.50;99.90;;;;;;4944281;28;20433;-72
2023/06/06 03:12:08;;;;;;;4.93;4.53;;;14.50;99.90;;;;;;4964480;28;20456;-72
2023/06/06 03:14:34;;;;;;;9.03;6.43;;;14.40;99.90;;;;;;4962210;29;20416;-72
2023/06/06 03:17:00;;;;;;;6.93;5.83;;;14.50;99.90;;;;;;4932458;29;20178;-71
2023/06/06 03:19:27;;;;;;;5.53;4.30;;;14.40;99.90;;;;;;4924381;29;20209;-71
2023/06/06 03:21:54;;;;;;;11.50;6.20;;;14.40;99.90;;;;;;4923970;29;20466;-71
2023/06/06 03:24:20;;;;;;;5.30;4.30;;;14.40;99.90;;;;;;4926364;29;20434;-72
2023/06/06 03:26:46;;;;;;;6.07;4.60;;;14.40;99.90;;;;;;4960513;29;20470;-72
2023/06/06 03:29:15;;;;;;;8.67;5.27;;;14.40;99.90;;;;;;4943129;29;20540;-72
2023/06/06 03:31:41;;;;;;;7.13;6.00;;;14.40;99.90;;;;;;4928709;29;20448;-72
2023/06/06 03:34:07;;;;;;;7.73;5.90;;;14.40;99.90;;;;;;4933889;29;20877;-70
2023/06/06 03:36:35;;;;;;;6.60;5.90;;;14.40;99.90;;;;;;4941778;29;20837;-74
2023/06/06 03:39:03;;;;;;;11.27;6.23;;;14.50;99.90;;;;;;4937092;29;20460;-71
2023/06/06 03:41:33;;;;;;;7.40;6.50;;;14.50;99.90;;;;;;4932469;29;20433;-72
2023/06/06 03:44:00;;;;;;;8.30;5.83;;;14.50;99.90;;;;;;4944874;29;20499;-71
2023/06/06 03:46:26;;;;;;;7.37;5.30;;;14.50;99.90;;;;;;4928833;29;20409;-72
2023/06/06 03:48:52;;;;;;;7.37;5.70;;;14.50;99.90;;;;;;4944667;29;20711;-71
2023/06/06 03:51:17;;;;;;;8.93;6.10;;;14.50;99.90;;;;;;4911792;29;20209;-72
2023/06/06 03:53:43;;;;;;;7.20;5.83;;;14.50;99.90;;;;;;4928562;29;20192;-72
2023/06/06 03:56:09;;;;;;;7.57;5.83;;;14.50;99.90;;;;;;4943758;29;20465;-72
2023/06/06 03:58:36;;;;;;;7.40;5.50;;;14.50;99.90;;;;;;4933085;29;20272;-72
2023/06/06 04:01:02;;;;;;;9.27;7.17;;;14.50;99.90;;;;;;4949380;29;20186;-72
2023/06/06 04:03:29;;;;;;;9.10;5.37;;;14.50;99.90;;;;;;4945597;29;20423;-72
2023/06/06 04:05:54;;;;;;;7.47;6.43;;;14.50;99.90;;;;;;4964418;29;20485;-72
2023/06/06 04:08:20;;;;;;;8.10;6.87;;;14.60;99.90;;;;;;4936399;29;20507;-72
2023/06/06 04:10:46;;;;;;;8.73;6.80;;;14.60;99.90;;;;;;4938730;28;20223;-73
2023/06/06 04:13:13;;;;;;;8.10;6.23;;;14.60;99.90;;;;;;4973294;28;20407;-76
2023/06/06 04:15:39;;;;;;;8.90;7.90;;;14.70;99.90;;;;;;4976055;28;20519;-73
2023/06/06 04:18:05;;;;;;;8.97;7.30;;;14.70;99.90;;;;;;4946073;29;20181;-72
2023/06/06 04:20:32;;;;;;;9.10;5.67;;;14.80;99.90;;;;;;4952399;29;20286;-73
2023/06/06 04:23:00;;;;;;;7.53;6.53;;;14.80;99.90;;;;;;4944465;29;20423;-71
2023/06/06 04:25:26;;;;;;;10.43;5.83;;;14.80;99.90;;;;;;4957613;28;20418;-73
2023/06/06 04:27:52;;;;;;;13.00;10.20;;;14.90;99.90;;;;;;4979570;28;20439;-71
2023/06/06 04:30:22;;;;;;;9.23;7.27;;;14.90;99.90;;;;;;4943009;29;20535;-75
2023/06/06 04:32:52;;;;;;;7.50;6.63;;;14.90;99.90;;;;;;4944902;29;20177;-76
2023/06/06 04:35:18;;;;;;;9.63;6.90;;;14.90;99.90;;;;;;4964413;29;20440;-74
2023/06/06 04:37:48;;;;;;;9.53;7.63;;;15.00;99.90;;;;;;4929317;28;20465;-74
2023/06/06 04:40:15;;;;;;;8.93;6.27;;;15.00;99.90;;;;;;4945440;29;20441;-72
2023/06/06 04:42:41;;;;;;;9.03;6.80;;;15.10;99.90;;;;;;4947307;29;20409;-73
2023/06/06 04:45:07;;;;;;;8.00;7.20;;;15.20;99.90;;;;;;4962126;28;20763;-73
2023/06/06 04:47:39;;;;;;;13.10;8.20;;;15.50;99.90;;;;;;4969105;28;20183;-73
2023/06/06 04:50:06;;;;;;;9.80;7.10;;;15.80;99.90;;;;;;4961013;28;20472;-74
2023/06/06 04:52:33;;;;;;;11.10;7.63;;;16.30;99.90;;;;;;4955726;28;20455;-72
2023/06/06 04:55:03;;;;;;;10.27;7.10;;;16.70;99.90;;;;;;4956611;28;20433;-74
2023/06/06 04:57:29;;;;;;;11.23;7.80;;;17.00;99.90;;;;;;4945517;29;20398;-73
2023/06/06 04:59:56;;;;;;;11.90;7.60;;;17.40;99.90;;;;;;4945929;29;20444;-71
2023/06/06 05:02:28;;;;;;;10.00;7.47;;;17.70;99.90;;;;;;4963768;28;20577;-73
2023/06/06 05:04:55;;;;;;;10.13;8.53;;;18.00;97.90;;;;;;4931986;29;20893;-73
2023/06/06 05:07:23;;;;;;;11.47;8.20;;;18.20;96.00;;;;;;4964187;28;20417;-74
2023/06/06 05:09:48;;;;;;;8.23;6.70;;;18.40;95.10;;;;;;4959249;28;20492;-73
2023/06/06 05:12:14;;;;;;;8.63;6.93;;;18.60;93.90;;;;;;4961328;29;20901;-74
2023/06/06 05:14:40;;;;;;;11.27;8.10;;;18.80;92.30;;;;;;4960731;28;20478;-77
2023/06/06 05:17:06;;;;;;;10.23;6.97;;;19.00;91.10;;;;;;4932493;29;20244;-71
2023/06/06 05:19:32;;;;;;;9.33;7.00;;;19.10;90.30;;;;;;4931037;29;20451;-75
2023/06/06 05:21:57;;;;;;;9.27;7.20;;;19.30;86.90;;;;;;4928881;29;20326;-73
2023/06/06 05:24:23;;;;;;;10.93;8.60;;;19.50;82.20;;;;;;4946646;29;20256;-72
2023/06/06 05:26:48;;;;;;;10.80;7.60;;;19.60;81.20;;;;;;4945490;29;20181;-74
2023/06/06 05:29:14;;;;;;;8.17;6.27;;;19.80;79.00;;;;;;4928337;29;20346;-75
2023/06/06 05:31:40;;;;;;;6.00;5.03;;;20.10;77.70;;;;;;4946669;29;20250;-75
2023/06/06 05:34:05;;;;;;;8.57;7.00;;;20.40;74.60;;;;;;4947104;29;20193;-75
2023/06/06 05:36:31;;;;;;;9.43;7.30;;;20.70;71.20;;;;;;4929440;28;20197;-73
2023/06/06 05:38:57;;;;;;;9.50;7.17;;;21.00;67.50;;;;;;4951158;28;20238;-74
2023/06/06 05:41:23;;;;;;;8.80;7.80;;;21.10;65.90;;;;;;4982014;28;20228;-73
2023/06/06 05:43:50;;;;;;;10.70;8.50;;;21.30;63.70;;;;;;4946641;29;20217;-77
2023/06/06 05:46:16;;;;;;;16.23;9.13;;;21.40;62.00;;;;;;4951028;29;20406;-75
2023/06/06 05:48:42;;;;;;;12.53;6.93;;;21.40;61.60;;;;;;4948989;29;20432;-74
2023/06/06 05:51:08;;;;;;;9.10;7.20;;;21.50;61.50;;;;;;4949486;29;20444;-73
2023/06/06 05:53:34;;;;;;;8.77;7.27;;;21.50;60.70;;;;;;4950257;28;20201;-73
2023/06/06 05:56:00;;;;;;;12.67;8.80;;;21.50;60.00;;;;;;4948458;28;20873;-73
2023/06/06 05:58:26;;;;;;;11.63;7.63;;;21.30;59.90;;;;;;4969768;28;20419;-74
2023/06/06 06:00:51;;;;;;;7.50;5.90;;;21.30;60.50;;;;;;4985974;28;20567;-76
2023/06/06 06:03:18;;;;;;;9.20;5.93;;;21.60;60.30;;;;;;4973741;28;20248;-77
2023/06/06 06:05:44;;;;;;;7.70;6.37;;;21.80;59.00;;;;;;4965117;29;20197;-74
2023/06/06 06:08:10;;;;;;;8.40;7.27;;;22.00;58.60;;;;;;4948887;29;20857;-75
2023/06/06 06:10:37;;;;;;;7.90;6.13;;;22.10;58.00;;;;;;4971413;28;20510;-75
2023/06/06 06:13:05;;;;;;;10.10;7.93;;;22.30;57.40;;;;;;4972026;28;20208;-73
2023/06/06 06:15:31;;;;;;;8.83;7.73;;;22.40;56.40;;;;;;4958574;29;20687;-75
2023/06/06 06:17:57;;;;;;;10.20;8.77;;;22.20;56.40;;;;;;4915112;29;20429;-75
2023/06/06 06:20:23;;;;;;;12.10;9.37;;;22.30;56.30;;;;;;4964561;28;20452;-73
2023/06/06 06:22:49;;;;;;;18.63;10.97;;;22.40;55.80;;;;;;4949422;29;20454;-74
2023/06/06 06:25:16;;;;;;;8.93;7.40;;;22.20;56.00;;;;;;4945304;29;20204;-74
2023/06/06 06:27:43;;;;;;;11.33;7.40;;;22.30;56.00;;;;;;4947095;29;20451;-76
2023/06/06 06:30:10;;;;;;;8.57;7.10;;;22.50;56.00;;;;;;4952034;28;20453;-76
2023/06/06 06:32:41;;;;;;;10.00;7.30;;;22.50;55.00;;;;;;4967568;28;20426;-73
2023/06/06 06:35:08;;;;;;;14.13;8.70;;;22.60;54.90;;;;;;4953623;28;20422;-74
2023/06/06 06:37:38;;;;;;;8.97;7.37;;;22.80;54.90;;;;;;4968010;28;20424;-77
2023/06/06 06:40:06;;;;;;;9.30;8.30;;;23.00;54.70;;;;;;4932236;29;20543;-75
2023/06/06 06:42:32;;;;;;;8.53;6.87;;;23.20;54.00;;;;;;4932585;29;20409;-74
2023/06/06 06:45:19;;;;;;;12.90;8.70;;;23.20;53.70;;;;;;4948926;29;20421;-75
2023/06/06 06:47:45;;;;;;;5.97;4.90;;;23.20;53.70;;;;;;4983225;28;20831;-76
2023/06/06 06:50:11;;;;;;;6.40;5.03;;;23.40;53.60;;;;;;4936596;29;20475;-74
2023/06/06 06:52:37;;;;;;;10.00;8.37;;;23.50;53.10;;;;;;4954247;29;20312;-78
2023/06/06 06:55:04;;;;;;;8.73;7.00;;;23.60;52.50;;;;;;4952164;29;20475;-74
2023/06/06 06:57:31;;;;;;;10.47;7.40;;;23.50;52.80;;;;;;4983348;28;20426;-78
2023/06/06 06:59:58;;;;;;;10.40;8.73;;;23.40;52.90;;;;;;4989003;28;20443;-75
2023/06/06 07:02:30;;;;;;;10.80;7.90;;;23.10;53.00;;;;;;4964675;29;20460;-76
2023/06/06 07:04:57;;;;;;;8.73;7.20;;;22.90;53.70;;;;;;4935268;29;20420;-77
2023/06/06 07:07:24;;;;;;;9.30;7.03;;;23.00;53.40;;;;;;4965921;28;20484;-77
2023/06/06 07:09:50;;;;;;;9.80;8.33;;;23.10;52.70;;;;;;4934276;29;20556;-76
2023/06/06 07:12:15;;;;;;;10.17;7.30;;;23.00;52.30;;;;;;4960383;29;20477;-76
2023/06/06 07:14:41;;;;;;;9.27;7.87;;;22.70;53.10;;;;;;4946212;29;20189;-75
2023/06/06 07:17:07;;;;;;;11.50;8.07;;;22.60;53.70;;;;;;4950352;29;20174;-78
2023/06/06 07:19:35;;;;;;;16.13;8.90;;;22.60;53.40;;;;;;4934929;29;20437;-73
2023/06/06 07:22:03;;;;;;;11.23;7.97;;;22.40;53.20;;;;;;4933329;29;20416;-76
2023/06/06 07:24:29;;;;;;;11.07;9.43;;;22.30;53.90;;;;;;4950941;29;20418;-74
2023/06/06 07:26:55;;;;;;;13.77;9.13;;;22.30;54.30;;;;;;4934048;29;20455;-78
2023/06/06 07:29:24;;;;;;;13.70;7.90;;;22.20;54.60;;;;;;4931148;29;20204;-76
2023/06/06 07:31:50;;;;;;;8.40;7.27;;;22.10;55.00;;;;;;4948859;29;20546;-75
2023/06/06 07:34:16;;;;;;;12.83;8.17;;;22.10;55.30;;;;;;4930778;29;20492;-78
2023/06/06 07:36:42;;;;;;;11.00;7.60;;;22.10;55.30;;;;;;4947525;29;20176;-74
2023/06/06 07:39:08;;;;;;;9.07;7.10;;;22.00;55.20;;;;;;4948935;29;20209;-77
2023/06/06 07:41:34;;;;;;;11.20;8.47;;;21.80;55.50;;;;;;4943061;29;20270;-74
2023/06/06 07:44:00;;;;;;;10.43;7.10;;;21.60;56.40;;;;;;4935771;29;20425;-75
2023/06/06 07:46:26;;;;;;;11.57;8.83;;;21.50;56.80;;;;;;4953059;29;20178;-77
2023/06/06 07:48:52;;;;;;;8.40;7.60;;;21.40;57.10;;;;;;4945951;29;20531;-76
2023/06/06 07:51:18;;;;;;;13.40;8.30;;;21.20;57.70;;;;;;4947752;29;20213;-76
2023/06/06 07:53:44;;;;;;;10.77;8.63;;;21.10;58.40;;;;;;4945424;29;20574;-75
2023/06/06 07:56:13;;;;;;;11.17;8.77;;;20.90;59.00;;;;;;4927985;29;20445;-73
2023/06/06 07:58:46;;;;;;;11.60;8.60;;;20.90;59.20;;;;;;4955232;29;20453;-76
2023/06/06 08:01:13;;;;;;;14.37;8.67;;;20.90;59.40;;;;;;4922547;29;20437;-74
2023/06/06 08:03:39;;;;;;;17.57;9.70;;;20.90;59.70;;;;;;4944891;29;20449;-73
2023/06/06 08:06:05;;;;;;;10.63;7.20;;;20.90;59.20;;;;;;4927612;29;20437;-76
2023/06/06 08:08:31;;;;;;;11.83;8.83;;;21.00;59.30;;;;;;4927474;29;20422;-75
2023/06/06 08:10:57;;;;;;;10.00;7.80;;;21.00;58.00;;;;;;4940175;29;20469;-77
2023/06/06 08:13:23;;;;;;;10.03;6.63;;;21.10;57.50;;;;;;4960216;29;20441;-73
2023/06/06 08:15:49;;;;;;;10.37;7.17;;;21.10;57.00;;;;;;4929071;29;20204;-74
2023/06/06 08:18:18;;;;;;;9.03;7.57;;;21.10;56.70;;;;;;4949882;29;20189;-78
2023/06/06 08:20:43;;;;;;;9.53;7.43;;;21.20;57.00;;;;;;4937283;29;20209;-76
2023/06/06 08:23:09;;;;;;;8.50;6.20;;;21.20;57.20;;;;;;4966906;28;20413;-75
2023/06/06 08:25:40;;;;;;;14.27;8.10;;;21.20;57.00;;;;;;4961078;29;20221;-75
2023/06/06 08:28:06;;;;;;;7.03;6.27;;;21.30;56.60;;;;;;4933774;29;20204;-75
2023/06/06 08:30:32;;;;;;;10.37;7.80;;;21.30;56.20;;;;;;4917712;29;20489;-73
2023/06/06 08:33:01;;;;;;;12.50;8.40;;;21.50;56.90;;;;;;4953912;29;20204;-74
2023/06/06 08:35:29;;;;;;;8.80;7.90;;;21.50;57.70;;;;;;4936982;29;20499;-75
2023/06/06 08:38:12;;;;;;;;;;;;;;;;;;;;;
2023/06/06 08:41:05;;;;;;;;;;;;;;;;;;;;;
2023/06/06 08:43:38;;;;;;;13.03;9.30;;;21.60;57.50;;;;;;4963662;28;20418;-76
2023/06/06 08:46:04;;;;;;;12.93;9.53;;;21.60;56.80;;;;;;4953150;29;20424;-77
2023/06/06 08:48:39;;;;;;;12.60;8.70;;;21.60;56.80;;;;;;4964445;29;20483;-74
2023/06/06 08:51:24;;;;;;;8.80;6.57;;;21.60;56.80;;;;;;4948545;29;20535;-77
2023/06/06 08:54:31;;;;;;;;;;;;;;;;;;;;;
2023/06/06 08:57:07;;;;;;;14.80;9.60;;;21.80;56.90;;;;;;4951318;29;20409;-76
2023/06/06 08:59:40;;;;;;;16.80;9.27;;;21.90;56.40;;;;;;4952520;29;20519;-74
2023/06/06 09:02:06;;;;;;;15.90;8.50;;;21.90;56.20;;;;;;4964770;28;20423;-75
2023/06/06 09:04:35;;;;;;;15.17;9.03;;;21.90;56.20;;;;;;4944005;29;20432;-77
2023/06/06 09:07:12;;;;;;;10.13;7.47;;;22.00;56.10;;;;;;4939626;29;20471;-76
2023/06/06 09:09:45;;;;;;;14.90;8.20;;;22.00;55.70;;;;;;4953605;29;20452;-77
2023/06/06 09:12:11;;;;;;;8.80;6.33;;;22.00;55.60;;;;;;4913443;29;1141091;-74
2023/06/06 09:14:37;;;;;;;13.70;9.10;;;22.20;55.90;;;;;;4955260;29;20562;-76
2023/06/06 09:17:03;;;;;;;10.70;8.67;;;22.30;55.80;;;;;;4923564;29;20545;-77
2023/06/06 09:19:30;;;;;;;9.60;7.00;;;22.30;55.60;;;;;;4942641;29;20218;-73
2023/06/06 09:22:00;;;;;;;11.67;8.30;;;22.40;55.50;;;;;;4921591;29;20889;-74
2023/06/06 09:24:28;;;;;;;11.00;7.37;;;22.50;54.80;;;;;;4954334;29;20446;-76
2023/06/06 09:26:55;;;;;;;9.80;7.57;;;22.50;54.60;;;;;;4953639;29;20489;-77
2023/06/06 09:29:21;;;;;;;9.00;7.53;;;22.60;55.00;;;;;;4937051;29;20442;-77
2023/06/06 09:31:48;;;;;;;8.00;6.50;;;22.70;55.20;;;;;;4935777;29;20217;-74
2023/06/06 09:34:15;;;;;;;13.97;7.80;;;22.80;54.90;;;;;;4936288;29;20178;-77
2023/06/06 09:36:42;;;;;;;9.50;6.90;;;22.90;54.10;;;;;;4954178;29;20432;-75
2023/06/06 09:39:11;;;;;;;12.10;7.53;;;22.90;53.50;;;;;;4958507;29;20512;-75
2023/06/06 09:41:42;;;;;;;12.77;7.80;;;23.00;53.10;;;;;;4972755;29;20480;-74
2023/06/06 09:44:24;;;;;;;7.60;6.60;;;23.00;51.30;;;;;;4941871;29;20499;-74
2023/06/06 09:47:01;;;;;;;10.97;7.00;;;23.00;51.20;;;;;;4934017;29;20423;-77
2023/06/06 09:49:37;;;;;;;9.63;6.63;;;23.00;50.80;;;;;;4934089;29;20482;-75
2023/06/06 09:52:04;;;;;;;10.00;6.17;;;22.90;50.40;;;;;;4905636;29;20426;-77
2023/06/06 09:54:29;;;;;;;8.93;6.60;;;22.90;50.60;;;;;;4922426;29;20418;-77
2023/06/06 09:56:56;;;;;;;5.30;4.00;;;22.90;50.80;;;;;;4918138;29;20418;-77
2023/06/06 09:59:25;;;;;;;7.80;5.60;;;23.10;50.90;;;;;;4917802;29;20194;-77
2023/06/06 10:02:02;;;;;;;8.90;5.77;;;23.20;50.40;;;;;;4970641;29;20431;-75
2023/06/06 10:04:28;;;;;;;12.17;6.40;;;23.40;49.30;;;;;;4939746;29;20421;-78
2023/06/06 10:06:57;;;;;;;8.10;5.80;;;23.50;48.90;;;;;;4958325;29;20406;-78
2023/06/06 10:09:22;;;;;;;5.97;4.77;;;23.50;48.50;;;;;;4954775;29;20440;-76
2023/06/06 10:11:49;;;;;;;10.57;6.07;;;23.40;48.70;;;;;;4952558;29;20480;-75
2023/06/06 10:14:16;;;;;;;9.37;5.47;;;23.40;48.60;;;;;;4938417;29;20259;-76
2023/06/06 10:16:42;;;;;;;12.97;5.03;;;23.40;48.70;;;;;;4940157;29;20413;-73
2023/06/06 10:19:13;;;;;;;7.23;4.37;;;23.60;47.90;;;;;;4946422;29;20561;-76
2023/06/06 10:21:40;;;;;;;5.33;4.17;;;23.70;46.70;;;;;;4953562;29;20181;-75
2023/06/06 10:24:06;;;;;;;5.07;3.57;;;23.70;46.00;;;;;;4955806;29;20416;-77
2023/06/06 10:26:46;;;;;;;5.50;4.30;;;23.80;44.60;;;;;;4957042;29;20519;-77
2023/06/06 10:29:22;;;;;;;7.00;4.83;;;23.80;45.20;;;;;;4940375;29;20456;-77
2023/06/06 10:32:06;;;;;;;5.83;4.33;;;23.80;46.10;;;;;;4956666;29;20491;-76
2023/06/06 10:34:37;;;;;;;6.23;4.50;;;24.00;46.30;;;;;;4949830;29;20397;-76
2023/06/06 10:37:16;;;;;;;5.80;4.50;;;24.00;43.90;;;;;;4955212;29;20437;-77
2023/06/06 10:39:47;;;;;;;6.80;4.47;;;24.10;43.80;;;;;;4939009;29;20716;-78
2023/06/06 10:42:13;;;;;;;6.20;4.10;;;24.20;44.60;;;;;;4939867;29;20413;-78
2023/06/06 10:44:45;;;;;;;5.10;4.57;;;24.20;45.20;;;;;;4952579;29;20405;-76
2023/06/06 10:47:37;;;;;;;13.90;5.87;;;24.30;45.50;;;;;;4937091;29;20418;-77
2023/06/06 10:50:10;;;;;;;6.60;5.50;;;24.30;45.90;;;;;;4947246;29;20469;-75
2023/06/06 10:52:41;;;;;;;10.20;6.27;;;24.50;46.10;;;;;;4951684;29;20405;-77
2023/06/06 10:55:30;;;;;;;7.83;5.80;;;24.60;46.10;;;;;;4950691;29;20418;-77
2023/06/06 10:58:10;;;;;;;8.50;5.30;;;24.60;46.90;;;;;;4947091;29;20516;-77
2023/06/06 11:00:45;;;;;;;6.40;5.40;;;24.40;46.80;;;;;;4943459;29;20527;-74
2023/06/06 11:03:13;;;;;;;8.87;5.80;;;24.50;47.00;;;;;;4942196;29;20417;-76
2023/06/06 11:06:01;;;;;;;7.03;5.63;;;24.50;47.10;;;;;;4969769;28;20431;-75
2023/06/06 11:08:45;;;;;;;9.80;5.57;;;24.60;46.90;;;;;;4956211;28;20426;-73
2023/06/06 11:11:30;;;;;;;7.30;4.90;;;24.60;45.70;;;;;;4982990;28;20484;-75
2023/06/06 11:14:04;;;;;;;6.47;4.53;;;24.70;46.20;;;;;;4954818;29;20432;-76
2023/06/06 11:16:51;;;;;;;7.77;5.87;;;24.90;46.10;;;;;;4937778;29;20412;-77
2023/06/06 11:19:19;;;;;;;10.13;5.50;;;24.90;45.70;;;;;;4948291;29;20459;-76
2023/06/06 11:21:50;;;;;;;6.63;5.87;;;24.90;45.70;;;;;;4939286;29;20435;-76
2023/06/06 11:24:18;;;;;;;8.17;6.07;;;25.00;45.80;;;;;;4954758;29;20424;-76
2023/06/06 11:26:44;;;;;;;9.37;6.33;;;25.00;45.40;;;;;;4939585;29;20452;-77
2023/06/06 11:29:11;;;;;;;10.40;6.83;;;24.90;45.80;;;;;;4958393;29;20463;-78
2023/06/06 11:31:38;;;;;;;8.40;5.90;;;25.00;45.60;;;;;;4931701;29;20468;-78
2023/06/06 11:34:14;;;;;;;8.80;5.73;;;25.00;45.30;;;;;;4938790;29;20458;-77
2023/06/06 11:36:41;;;;;;;9.60;5.93;;;25.10;44.70;;;;;;4952125;29;20421;-78
2023/06/06 11:39:13;;;;;;;7.93;5.57;;;25.10;44.70;;;;;;4935158;29;20721;-76
2023/06/06 11:41:44;;;;;;;9.87;6.27;;;25.20;44.40;;;;;;4961683;29;20448;-77
2023/06/06 11:44:11;;;;;;;6.00;5.00;;;25.20;44.00;;;;;;4942914;29;20417;-77
2023/06/06 11:46:51;;;;;;;7.70;5.50;;;25.40;43.70;;;;;;4940111;29;20476;-76
2023/06/06 11:49:18;;;;;;;10.67;5.37;;;25.60;43.10;;;;;;4972109;29;20660;-78
2023/06/06 11:51:55;;;;;;;6.90;5.07;;;25.80;42.50;;;;;;4941516;29;20443;-76
2023/06/06 11:54:22;;;;;;;6.93;5.73;;;26.00;41.60;;;;;;4957133;29;20500;-77
2023/06/06 11:56:51;;;;;;;7.17;4.43;;;26.30;41.60;;;;;;4971198;29;20429;-77
2023/06/06 11:59:17;;;;;;;5.90;5.03;;;26.40;41.00;;;;;;4954347;29;20777;-78
2023/06/06 12:01:53;;;;;;;5.77;4.00;;;26.40;39.70;;;;;;4957400;29;20495;-76
2023/06/06 12:04:20;;;;;;;10.83;4.70;;;26.50;38.60;;;;;;4942443;29;20190;-74
2023/06/06 12:06:50;;;;;;;6.50;4.53;;;26.50;38.10;;;;;;4941889;29;20421;-76
2023/06/06 12:09:19;;;;;;;6.50;5.07;;;26.60;38.30;;;;;;4941084;29;20444;-77
2023/06/06 12:11:59;;;;;;;7.97;5.10;;;26.70;38.30;;;;;;4957934;29;20491;-78
2023/06/06 12:14:27;;;;;;;6.87;4.50;;;26.70;38.30;;;;;;4954863;29;20412;-76
2023/06/06 12:17:01;;;;;;;6.70;4.63;;;26.70;38.30;;;;;;4962001;29;20480;-76
2023/06/06 12:19:27;;;;;;;8.40;5.10;;;26.70;37.90;;;;;;4946448;29;20511;-77
2023/06/06 12:21:53;;;;;;;9.03;5.37;;;26.60;38.10;;;;;;4958437;29;20434;-78
2023/06/06 12:24:23;;;;;;;4.87;4.40;;;26.60;38.10;;;;;;4977141;29;20250;-77
2023/06/06 12:26:53;;;;;;;7.07;4.73;;;26.60;38.70;;;;;;4974164;29;20183;-79
2023/06/06 12:29:20;;;;;;;6.83;4.67;;;26.60;38.30;;;;;;4959255;29;20452;-77
2023/06/06 12:31:49;;;;;;;6.37;5.20;;;26.60;37.90;;;;;;4942104;29;20487;-77
2023/06/06 12:34:14;;;;;;;5.50;4.20;;;26.50;38.00;;;;;;4944085;29;20424;-78
2023/06/06 12:36:41;;;;;;;14.13;4.63;;;26.50;38.30;;;;;;4928002;29;20436;-79
2023/06/06 12:39:11;;;;;;;8.93;5.10;;;26.40;38.50;;;;;;4953969;29;20209;-76
2023/06/06 12:41:41;;;;;;;5.67;4.53;;;26.50;37.90;;;;;;4954652;29;20441;-78
2023/06/06 12:44:15;;;;;;;4.30;3.70;;;26.70;37.90;;;;;;4928771;29;20485;-80
2023/06/06 12:46:42;;;;;;;17.23;5.07;;;26.70;38.00;;;;;;4944518;29;20418;-82
2023/06/06 12:49:09;;;;;;;8.13;5.00;;;26.90;38.00;;;;;;4948157;29;20460;-78
2023/06/06 12:51:38;;;;;;;7.37;4.67;;;27.00;37.00;;;;;;4941929;29;20455;-77
2023/06/06 12:54:05;;;;;;;7.30;4.60;;;27.00;36.50;;;;;;4942977;29;20410;-78
2023/06/06 12:56:31;;;;;;;7.33;4.83;;;27.00;36.40;;;;;;4926922;29;20417;-79